Time;durP1;ratioP1;P1;durP2;ratioP2;P2;SDS_P1;SDS_P2;PMS_P1;PMS_P2;Temp;Humidity;BMP_temperature;BMP_pressure;BME280_temperature;BME280_humidity;BME280_pressure;Samples;Min_cycle;Max_cycle;Signal;HPM_P1;HPM_P2
2022/04/15 00:05:02;;;;;;;0.20;0.10;;;15.20;99.90;;;;;;25505946;23;20202;-71
2022/04/15 00:15:08;;;;;;;0.20;0.10;;;15.30;99.90;;;;;;25487736;23;20179;-73
2022/04/15 00:25:12;;;;;;;0.20;0.10;;;15.10;99.90;;;;;;25538496;23;20419;-76
2022/04/15 00:35:17;;;;;;;0.77;0.77;;;15.20;99.90;;;;;;25539590;23;20199;-75
2022/04/15 00:45:21;;;;;;;0.20;0.10;;;15.10;99.90;;;;;;25512544;23;20217;-76
2022/04/15 00:55:27;;;;;;;0.20;0.07;;;15.00;99.90;;;;;;25511888;23;20178;-76
2022/04/15 01:05:31;;;;;;;0.23;0.23;;;14.90;99.90;;;;;;25513957;23;20199;-72
2022/04/15 01:15:36;;;;;;;0.50;0.50;;;15.00;99.90;;;;;;25541095;23;20168;-74
2022/04/15 01:25:41;;;;;;;0.20;0.10;;;14.70;99.90;;;;;;25513908;23;20195;-76
2022/04/15 01:35:45;;;;;;;0.33;0.30;;;14.50;99.90;;;;;;25513408;23;20199;-77
2022/04/15 01:45:50;;;;;;;0.20;0.20;;;14.70;99.90;;;;;;25536853;23;20191;-76
2022/04/15 01:55:54;;;;;;;0.20;0.00;;;14.10;99.90;;;;;;25531011;23;20175;-78
2022/04/15 02:05:59;;;;;;;0.20;0.10;;;14.20;99.90;;;;;;25504112;23;20270;-76
2022/04/15 02:16:03;;;;;;;0.20;0.10;;;14.20;99.90;;;;;;25532422;23;20274;-73
2022/04/15 02:26:08;;;;;;;0.20;0.10;;;14.10;99.90;;;;;;25506467;23;20194;-74
2022/04/15 02:36:13;;;;;;;0.20;0.10;;;14.10;99.90;;;;;;25530937;23;20249;-73
2022/04/15 02:46:19;;;;;;;0.20;0.10;;;14.00;99.90;;;;;;25530581;23;20221;-72
2022/04/15 02:56:23;;;;;;;0.20;0.10;;;13.90;99.90;;;;;;25530253;23;20191;-74
2022/04/15 03:06:28;;;;;;;0.20;0.00;;;13.80;99.90;;;;;;25526619;23;20225;-73
2022/04/15 03:16:32;;;;;;;0.20;0.00;;;13.70;99.90;;;;;;25503580;23;20174;-78
2022/04/15 03:26:37;;;;;;;0.20;0.10;;;13.40;99.90;;;;;;25527565;23;20214;-73
2022/04/15 03:36:41;;;;;;;0.20;0.00;;;13.70;99.90;;;;;;25528693;23;20506;-73
2022/04/15 03:46:46;;;;;;;0.20;0.10;;;13.20;99.90;;;;;;25503910;23;20254;-73
2022/04/15 03:56:50;;;;;;;1.70;1.60;;;12.90;99.90;;;;;;25501768;23;20261;-72
2022/04/15 04:06:55;;;;;;;0.20;0.10;;;13.30;99.90;;;;;;25526899;23;20201;-76
2022/04/15 04:16:59;;;;;;;0.20;0.00;;;13.70;99.90;;;;;;25528967;23;20231;-77
2022/04/15 04:27:04;;;;;;;0.20;0.10;;;14.30;99.90;;;;;;25527237;23;20254;-77
2022/04/15 04:37:08;;;;;;;0.20;0.10;;;14.60;99.90;;;;;;25527849;23;20215;-76
2022/04/15 04:47:14;;;;;;;0.20;0.10;;;15.20;99.90;;;;;;25501055;23;20222;-77
2022/04/15 04:57:18;;;;;;;0.20;0.00;;;15.30;99.90;;;;;;25522941;23;20206;-77
2022/04/15 05:07:29;;;;;;;0.27;0.27;;;15.40;99.90;;;;;;25534255;23;20268;-76
2022/04/15 05:17:33;;;;;;;5.70;5.50;;;15.70;99.90;;;;;;25531145;23;20198;-75
2022/04/15 05:27:38;;;;;;;0.20;0.10;;;15.50;99.90;;;;;;25534419;23;20246;-76
2022/04/15 05:37:42;;;;;;;0.20;0.10;;;15.50;99.90;;;;;;25504461;23;20226;-78
2022/04/15 05:47:47;;;;;;;0.20;0.10;;;15.50;99.90;;;;;;25531623;23;20258;-78
2022/04/15 05:57:51;;;;;;;0.20;0.10;;;15.50;99.90;;;;;;25505296;23;20229;-75
2022/04/15 06:07:56;;;;;;;0.20;0.00;;;15.80;99.90;;;;;;25531831;23;20206;-77
2022/04/15 06:18:00;;;;;;;0.20;0.10;;;15.90;99.90;;;;;;25530001;23;20189;-77
2022/04/15 06:28:06;;;;;;;0.20;0.10;;;16.20;99.90;;;;;;25528551;23;20226;-77
2022/04/15 06:38:10;;;;;;;0.20;0.10;;;16.40;99.90;;;;;;25504349;23;20159;-77
2022/04/15 06:48:16;;;;;;;0.20;0.07;;;16.60;99.90;;;;;;25502054;23;20187;-73
2022/04/15 06:58:20;;;;;;;0.20;0.03;;;17.30;99.90;;;;;;25529224;23;20401;-72
2022/04/15 07:08:25;;;;;;;0.20;0.10;;;17.70;99.90;;;;;;25502970;23;20222;-72
2022/04/15 07:18:29;;;;;;;0.20;0.10;;;18.30;99.90;;;;;;25528042;23;20171;-74
2022/04/15 07:28:35;;;;;;;0.20;0.00;;;18.90;99.90;;;;;;25497249;23;20226;-73
2022/04/15 07:38:38;;;;;;;0.20;0.10;;;19.50;99.90;;;;;;25475855;23;20197;-72
2022/04/15 07:48:44;;;;;;;0.20;0.10;;;20.00;99.90;;;;;;25495650;23;20206;-71
2022/04/15 07:58:48;;;;;;;0.20;0.10;;;20.50;99.90;;;;;;25499666;23;20214;-73
2022/04/15 08:08:54;;;;;;;0.20;0.00;;;21.00;99.90;;;;;;25524599;23;20198;-74
2022/04/15 08:18:57;;;;;;;0.20;0.03;;;21.60;99.90;;;;;;25524494;23;20226;-73
2022/04/15 08:29:03;;;;;;;0.20;0.00;;;21.60;99.90;;;;;;25501458;23;20631;-73
2022/04/15 08:39:07;;;;;;;0.20;0.00;;;21.90;99.90;;;;;;25506332;23;20234;-79
2022/04/15 08:49:14;;;;;;;0.20;0.00;;;21.80;99.90;;;;;;25531919;23;20441;-76
2022/04/15 08:59:18;;;;;;;0.20;0.00;;;21.30;99.90;;;;;;25533624;23;20254;-76
2022/04/15 09:09:29;;;;;;;0.20;0.00;;;21.60;99.90;;;;;;25505215;23;20282;-75
2022/04/15 09:19:35;;;;;;;0.20;0.00;;;22.00;99.90;;;;;;25528109;23;20177;-76
2022/04/15 09:29:41;;;;;;;0.20;0.00;;;22.00;99.90;;;;;;25529273;23;20258;-77
2022/04/15 09:40:06;;;;;;;0.20;0.00;;;22.50;99.90;;;;;;25530054;23;20482;-74
2022/04/15 09:50:25;;;;;;;0.20;0.00;;;22.70;99.90;;;;;;25505782;23;20210;-79
2022/04/15 10:00:30;;;;;;;0.20;0.00;;;23.20;99.90;;;;;;25529533;23;20250;-78
2022/04/15 10:10:37;;;;;;;0.20;0.03;;;23.90;99.90;;;;;;25524686;23;20210;-76
2022/04/15 10:20:42;;;;;;;0.63;0.32;;;24.20;99.90;;;;;;25526285;23;20193;-75
2022/04/15 10:30:52;;;;;;;0.20;0.00;;;24.30;99.90;;;;;;25524498;23;20222;-76
2022/04/15 10:40:57;;;;;;;0.20;0.00;;;24.50;99.90;;;;;;25524094;23;20162;-76
2022/04/15 10:51:23;;;;;;;0.20;0.00;;;24.90;99.90;;;;;;25525345;23;20251;-76
2022/04/15 11:01:26;;;;;;;0.20;0.00;;;24.70;99.90;;;;;;25523960;23;20250;-76
2022/04/15 11:11:35;;;;;;;0.20;0.00;;;24.60;99.90;;;;;;25495262;23;20269;-74
2022/04/15 11:21:40;;;;;;;0.20;0.00;;;25.30;99.90;;;;;;25495635;23;20186;-75
2022/04/15 11:31:49;;;;;;;0.20;0.03;;;26.10;99.90;;;;;;25524045;23;20207;-76
2022/04/15 11:41:57;;;;;;;0.20;0.00;;;26.90;99.90;;;;;;25497120;23;20153;-75
2022/04/15 11:52:02;;;;;;;0.20;0.00;;;26.50;99.90;;;;;;25499853;23;20248;-79
2022/04/15 12:02:07;;;;;;;0.20;0.05;;;26.00;99.90;;;;;;25523970;23;20217;-76
2022/04/15 12:12:12;;;;;;;0.20;0.05;;;26.60;99.90;;;;;;25501444;23;20190;-74
2022/04/15 12:22:19;;;;;;;0.20;0.03;;;26.20;99.90;;;;;;25524091;23;20243;-76
2022/04/15 12:32:25;;;;;;;0.80;0.80;;;26.20;99.90;;;;;;25527848;23;20249;-76
2022/04/15 12:42:30;;;;;;;0.20;0.00;;;26.10;99.90;;;;;;25529014;23;20415;-75
2022/04/15 12:52:36;;;;;;;0.20;0.10;;;26.80;99.90;;;;;;25501245;23;20190;-76
2022/04/15 13:02:40;;;;;;;0.20;0.00;;;27.00;99.90;;;;;;25524051;23;20217;-75
2022/04/15 13:12:46;;;;;;;1.85;1.65;;;26.80;99.90;;;;;;25500914;23;20202;-75
2022/04/15 13:22:50;;;;;;;0.20;0.00;;;27.00;99.90;;;;;;25528614;23;20184;-73
2022/04/15 13:33:02;;;;;;;0.20;0.00;;;28.00;99.90;;;;;;25530827;23;20271;-74
2022/04/15 13:43:07;;;;;;;0.20;0.00;;;27.20;99.90;;;;;;25530885;23;20213;-73
2022/04/15 14:03:34;;;;;;;0.32;0.32;;;28.90;99.90;;;;;;25528476;23;20198;-72
2022/04/15 14:13:42;;;;;;;0.20;0.00;;;28.70;99.90;;;;;;25526123;23;20194;-74
2022/04/15 14:23:46;;;;;;;0.20;0.10;;;29.70;99.90;;;;;;25529162;23;20251;-74
2022/04/15 14:33:52;;;;;;;0.20;0.00;;;28.90;99.90;;;;;;25501888;23;20210;-74
2022/04/15 14:43:55;;;;;;;0.57;0.57;;;29.00;99.90;;;;;;25500625;23;20182;-76
2022/04/15 14:54:00;;;;;;;0.20;0.00;;;29.20;99.90;;;;;;25529612;23;20203;-77
2022/04/15 15:04:05;;;;;;;0.20;0.00;;;29.10;99.90;;;;;;25504387;23;20194;-77
2022/04/15 15:14:10;;;;;;;0.20;0.00;;;29.00;99.90;;;;;;25528196;23;20205;-76
2022/04/15 15:34:37;;;;;;;0.20;0.00;;;28.50;99.90;;;;;;25526863;23;20206;-72
2022/04/15 15:44:41;;;;;;;0.20;0.00;;;26.70;99.90;;;;;;25526370;23;20159;-72
2022/04/15 15:54:46;;;;;;;0.20;0.00;;;25.70;99.90;;;;;;25476398;23;20726;-72
2022/04/15 16:04:50;;;;;;;0.20;0.00;;;24.80;99.90;;;;;;25501911;23;20199;-72
2022/04/15 16:14:55;;;;;;;0.20;0.00;;;24.50;99.90;;;;;;25501724;23;20186;-72
2022/04/15 16:25:00;;;;;;;0.20;0.00;;;24.80;99.90;;;;;;25505397;23;20179;-72
2022/04/15 16:35:06;;;;;;;0.20;0.03;;;24.50;99.90;;;;;;25528599;23;20206;-78
2022/04/15 16:45:12;;;;;;;0.20;0.00;;;24.20;99.90;;;;;;25527930;23;20186;-78
2022/04/15 17:05:49;;;;;;;0.20;0.00;;;23.10;99.90;;;;;;25531080;23;20181;-78
2022/04/15 17:15:55;;;;;;;0.20;0.00;;;23.50;99.90;;;;;;25509237;23;20606;-76
2022/04/15 17:26:00;;;;;;;0.20;0.00;;;23.60;99.90;;;;;;25532527;23;20230;-77
2022/04/15 17:36:06;;;;;;;0.20;0.00;;;23.90;99.90;;;;;;25529223;23;20206;-77
2022/04/15 17:46:10;;;;;;;0.20;0.00;;;23.40;99.90;;;;;;25528968;23;20171;-72
2022/04/15 17:56:17;;;;;;;0.20;0.00;;;22.90;99.90;;;;;;25530270;23;20222;-74
2022/04/15 18:06:22;;;;;;;0.20;0.03;;;22.20;99.90;;;;;;25528274;23;20167;-75
2022/04/15 18:16:28;;;;;;;0.20;0.00;;;21.70;99.90;;;;;;25503358;23;20225;-72
2022/04/15 18:26:32;;;;;;;0.20;0.00;;;21.40;99.90;;;;;;25526395;23;20190;-75
